createdAt,value
2024-01-10T00:01:41.657Z,-5.70
2024-01-10T00:04:10.989Z,-5.80
2024-01-10T00:06:40.201Z,-5.80
2024-01-10T00:09:09.307Z,-5.70
2024-01-10T00:11:39.862Z,-5.70
2024-01-10T00:14:08.931Z,-5.80
2024-01-10T00:16:38.133Z,-5.80
2024-01-10T00:19:07.501Z,-5.80
2024-01-10T00:21:37.548Z,-5.80
2024-01-10T00:24:07.162Z,-5.80
2024-01-10T00:26:36.242Z,-5.70
2024-01-10T00:29:06.920Z,-5.70
2024-01-10T00:31:36.119Z,-5.70
2024-01-10T00:34:05.201Z,-5.80
2024-01-10T00:36:34.422Z,-5.80
2024-01-10T00:39:03.480Z,-5.80
2024-01-10T00:41:32.524Z,-5.80
2024-01-10T00:44:01.833Z,-5.80
2024-01-10T00:46:32.535Z,-5.80
2024-01-10T00:49:01.793Z,-5.80
2024-01-10T00:51:32.350Z,-5.80
2024-01-10T00:54:02.918Z,-5.80
2024-01-10T00:56:33.484Z,-5.70
2024-01-10T00:59:04.278Z,-5.70
2024-01-10T01:01:36.726Z,-5.70
2024-01-10T01:04:08.430Z,-5.70
2024-01-10T01:06:39.194Z,-5.70
2024-01-10T01:09:10.041Z,-5.70
2024-01-10T01:11:40.499Z,-5.70
2024-01-10T01:14:11.127Z,-5.70
2024-01-10T01:16:45.521Z,-5.70
2024-01-10T01:19:16.128Z,-5.70
2024-01-10T01:21:46.894Z,-5.80
2024-01-10T01:24:17.394Z,-5.80
2024-01-10T01:26:46.424Z,-5.70
2024-01-10T01:29:15.471Z,-5.80
2024-01-10T01:31:46.179Z,-5.70
2024-01-10T01:34:16.583Z,-5.70
2024-01-10T01:36:47.313Z,-5.70
2024-01-10T01:39:18.026Z,-5.80
2024-01-10T01:41:49.309Z,-5.80
2024-01-10T01:44:20.350Z,-5.90
2024-01-10T01:46:53.143Z,-5.90
2024-01-10T01:49:23.775Z,-5.90
2024-01-10T01:51:54.657Z,-5.90
2024-01-10T01:54:25.915Z,-5.90
2024-01-10T01:56:57.632Z,-6.00
2024-01-10T01:59:28.535Z,-6.00
2024-01-10T02:02:04.131Z,-5.90
2024-01-10T02:04:35.822Z,-6.00
2024-01-10T02:07:07.568Z,-6.00
2024-01-10T02:09:38.089Z,-6.00
2024-01-10T02:12:09.226Z,-6.00
2024-01-10T02:14:38.912Z,-6.00
2024-01-10T02:17:09.673Z,-6.00
2024-01-10T02:19:38.875Z,-6.00
2024-01-10T02:22:08.111Z,-6.00
2024-01-10T02:24:37.303Z,-6.00
2024-01-10T02:27:08.266Z,-6.00
2024-01-10T02:29:37.853Z,-6.00
2024-01-10T02:32:08.227Z,-6.00
2024-01-10T02:34:37.556Z,-5.90
2024-01-10T02:37:06.903Z,-5.90
2024-01-10T02:39:36.035Z,-5.90
2024-01-10T02:42:06.857Z,-6.10
2024-01-10T02:44:36.101Z,-6.10
2024-01-10T02:47:05.564Z,-6.10
2024-01-10T02:49:35.220Z,-6.00
2024-01-10T02:52:04.701Z,-6.00
2024-01-10T02:54:33.825Z,-6.10
2024-01-10T02:57:03.112Z,-6.10
2024-01-10T02:59:33.515Z,-6.10
2024-01-10T03:02:02.723Z,-6.10
2024-01-10T03:04:31.910Z,-6.10
2024-01-10T03:07:01.032Z,-6.00
2024-01-10T03:09:30.070Z,-6.00
2024-01-10T03:11:59.148Z,-6.00
2024-01-10T03:14:28.188Z,-6.10
2024-01-10T03:16:58.683Z,-6.20
2024-01-10T03:19:27.692Z,-6.10
2024-01-10T03:21:56.769Z,-6.10
2024-01-10T03:24:28.547Z,-6.10
2024-01-10T03:26:57.574Z,-6.10
2024-01-10T03:29:26.658Z,-6.20
2024-01-10T03:31:55.634Z,-6.10
2024-01-10T03:34:26.019Z,-6.10
2024-01-10T03:36:54.935Z,-6.10
2024-01-10T03:39:23.968Z,-6.20
2024-01-10T03:41:52.948Z,-6.20
2024-01-10T03:44:21.997Z,-6.20
2024-01-10T03:46:51.072Z,-6.20
2024-01-10T03:49:20.225Z,-6.10
2024-01-10T03:51:50.655Z,-6.20
2024-01-10T03:54:19.596Z,-6.20
2024-01-10T03:56:48.623Z,-6.20
2024-01-10T03:59:17.763Z,-6.20
2024-01-10T04:01:46.959Z,-6.20
2024-01-10T04:04:15.984Z,-6.20
2024-01-10T04:06:45.162Z,-6.30
2024-01-10T04:09:15.551Z,-6.30
2024-01-10T04:11:44.492Z,-6.30
2024-01-10T04:14:13.870Z,-6.30
2024-01-10T04:16:42.899Z,-6.30
2024-01-10T04:19:12.139Z,-6.30
2024-01-10T04:21:41.210Z,-6.30
2024-01-10T04:24:10.291Z,-6.30
2024-01-10T04:26:40.793Z,-6.30
2024-01-10T04:29:09.970Z,-6.30
2024-01-10T04:31:39.089Z,-6.30
2024-01-10T04:34:08.336Z,-6.40
2024-01-10T04:36:37.474Z,-6.40
2024-01-10T04:39:06.592Z,-6.40
2024-01-10T04:41:35.685Z,-6.30
2024-01-10T04:44:06.657Z,-6.40
2024-01-10T04:46:36.173Z,-6.40
2024-01-10T04:49:05.425Z,-6.40
2024-01-10T04:51:34.603Z,-6.40
2024-01-10T04:54:03.732Z,-6.30
2024-01-10T04:56:32.827Z,-6.40
2024-01-10T04:59:02.048Z,-6.40
2024-01-10T05:01:33.362Z,-6.40
2024-01-10T05:04:02.338Z,-6.50
2024-01-10T05:06:31.384Z,-6.50
2024-01-10T05:09:00.487Z,-6.50
2024-01-10T05:11:29.535Z,-6.40
2024-01-10T05:13:58.711Z,-6.40
2024-01-10T05:16:27.684Z,-6.40
2024-01-10T05:18:58.076Z,-6.40
2024-01-10T05:21:27.879Z,-6.30
2024-01-10T05:23:56.954Z,-6.40
2024-01-10T05:26:26.007Z,-6.50
2024-01-10T05:28:55.054Z,-6.50
2024-01-10T05:31:24.079Z,-6.50
2024-01-10T05:33:54.600Z,-6.50
2024-01-10T05:36:27.570Z,-6.50
2024-01-10T05:38:56.653Z,-6.60
2024-01-10T05:41:26.429Z,-6.50
2024-01-10T05:43:55.573Z,-6.50
2024-01-10T05:46:24.785Z,-6.60
2024-01-10T05:48:53.898Z,-6.60
2024-01-10T05:51:22.907Z,-6.60
2024-01-10T05:53:53.390Z,-6.60
2024-01-10T05:56:22.384Z,-6.60
2024-01-10T05:58:51.949Z,-6.60
2024-01-10T06:01:21.635Z,-6.60
2024-01-10T06:03:51.078Z,-6.60
2024-01-10T06:06:20.432Z,-6.70
2024-01-10T06:08:49.570Z,-6.70
2024-01-10T06:11:20.587Z,-6.70
2024-01-10T06:13:54.314Z,-6.70
2024-01-10T06:16:27.004Z,-6.80
2024-01-10T06:18:56.273Z,-6.70
2024-01-10T06:21:25.463Z,-6.70
2024-01-10T06:23:54.605Z,-6.80
2024-01-10T06:26:25.174Z,-6.80
2024-01-10T06:28:54.190Z,-6.80
2024-01-10T06:31:23.521Z,-6.80
2024-01-10T06:33:52.735Z,-6.70
2024-01-10T06:36:21.768Z,-6.80
2024-01-10T06:38:50.960Z,-6.80
2024-01-10T06:41:19.983Z,-6.70
2024-01-10T06:43:50.478Z,-6.80
2024-01-10T06:46:19.560Z,-6.80
2024-01-10T06:48:49.274Z,-6.80
2024-01-10T06:51:19.890Z,-6.70
2024-01-10T06:53:49.001Z,-6.70
2024-01-10T06:56:18.466Z,-6.60
2024-01-10T06:58:47.499Z,-6.70
2024-01-10T07:01:18.278Z,-6.70
2024-01-10T07:03:47.950Z,-6.70
2024-01-10T07:06:17.317Z,-6.60
2024-01-10T07:08:46.983Z,-6.50
2024-01-10T07:11:16.208Z,-6.60
2024-01-10T07:13:45.377Z,-6.60
2024-01-10T07:16:16.500Z,-6.50
2024-01-10T07:18:48.922Z,-6.50
2024-01-10T07:21:18.818Z,-6.50
2024-01-10T07:23:47.942Z,-6.40
2024-01-10T07:26:17.948Z,-6.40
2024-01-10T07:28:47.441Z,-6.40
2024-01-10T07:31:17.307Z,-6.30
2024-01-10T07:33:48.164Z,-6.30
2024-01-10T07:36:17.670Z,-6.20
2024-01-10T07:38:47.454Z,-6.10
2024-01-10T07:41:16.541Z,-6.10
2024-01-10T07:43:45.863Z,-6.00
2024-01-10T07:46:16.317Z,-6.00
2024-01-10T07:48:47.026Z,-5.80
2024-01-10T07:51:18.666Z,-5.60
2024-01-10T07:53:50.621Z,-5.40
2024-01-10T07:56:21.389Z,-5.10
2024-01-10T07:58:50.811Z,-4.80
2024-01-10T08:01:20.581Z,-4.50
2024-01-10T08:03:51.258Z,-4.20
2024-01-10T08:06:26.976Z,-3.80
2024-01-10T08:09:01.245Z,-3.50
2024-01-10T08:11:30.317Z,-3.30
2024-01-10T08:13:59.806Z,-3.10
2024-01-10T08:16:28.901Z,-3.00
2024-01-10T08:19:00.716Z,-3.00
2024-01-10T08:21:30.063Z,-2.80
2024-01-10T08:23:59.304Z,-2.40
2024-01-10T08:26:29.907Z,-2.20
2024-01-10T08:28:59.099Z,-2.20
2024-01-10T08:31:28.491Z,-2.30
2024-01-10T08:33:59.382Z,-2.20
2024-01-10T08:36:28.672Z,-2.00
2024-01-10T08:38:57.792Z,-1.70
2024-01-10T08:41:26.916Z,-1.60
2024-01-10T08:43:56.255Z,-1.50
2024-01-10T08:46:25.904Z,-1.30
2024-01-10T08:48:55.221Z,-1.10
2024-01-10T08:51:25.874Z,-1.00
2024-01-10T08:53:55.222Z,-1.10
2024-01-10T08:56:25.348Z,-1.20
2024-01-10T08:58:54.919Z,-1.20
2024-01-10T09:01:24.341Z,-1.20
2024-01-10T09:03:53.426Z,-0.90
2024-01-10T09:06:22.800Z,-0.80
2024-01-10T09:08:54.683Z,-0.60
2024-01-10T09:11:24.132Z,-0.30
2024-01-10T09:13:53.574Z,-0.10
2024-01-10T09:16:22.690Z,-0.10
2024-01-10T09:18:55.515Z,0.00
2024-01-10T09:21:24.678Z,0.10
2024-01-10T09:23:55.401Z,0.20
2024-01-10T09:26:24.534Z,0.30
2024-01-10T09:28:53.795Z,0.50
2024-01-10T09:31:23.088Z,0.60
2024-01-10T09:33:52.720Z,0.70
2024-01-10T09:36:21.964Z,0.70
2024-01-10T09:38:51.158Z,0.60
2024-01-10T09:41:21.980Z,0.60
2024-01-10T09:43:51.316Z,0.60
2024-01-10T09:46:21.226Z,0.50
2024-01-10T09:48:54.451Z,0.20
2024-01-10T09:51:25.704Z,-0.10
2024-01-10T09:53:57.102Z,-0.30
2024-01-10T09:56:27.744Z,-0.40
2024-01-10T09:59:00.140Z,-0.30
2024-01-10T10:01:29.676Z,-0.40
2024-01-10T10:04:00.256Z,-0.20
2024-01-10T10:06:29.467Z,0.00
2024-01-10T10:08:58.739Z,0.10
2024-01-10T10:11:29.569Z,0.10
2024-01-10T10:13:58.991Z,0.00
2024-01-10T10:16:28.936Z,-0.10
2024-01-10T10:18:59.350Z,-0.30
2024-01-10T10:21:29.513Z,-0.50
2024-01-10T10:24:03.028Z,-0.60
2024-01-10T10:26:36.277Z,-0.50
2024-01-10T10:29:06.966Z,-0.50
2024-01-10T10:31:36.423Z,-0.50
2024-01-10T10:34:05.765Z,-0.50
2024-01-10T10:36:58.189Z,-0.50
2024-01-10T10:39:28.024Z,-0.70
2024-01-10T10:42:00.686Z,-0.70
2024-01-10T10:44:34.474Z,-0.90
2024-01-10T10:47:12.310Z,-1.10
2024-01-10T10:49:49.912Z,-1.10
2024-01-10T10:52:21.243Z,-1.10
2024-01-10T10:54:51.794Z,-1.10
2024-01-10T10:57:23.064Z,-1.20
2024-01-10T10:59:53.557Z,-1.10
2024-01-10T11:02:29.293Z,-1.20
2024-01-10T11:05:02.562Z,-1.20
2024-01-10T11:07:31.878Z,-1.20
2024-01-10T11:10:02.314Z,-1.10
2024-01-10T11:13:01.409Z,-1.20
2024-01-10T11:15:49.700Z,-1.20
2024-01-10T11:18:36.200Z,-1.10
2024-01-10T11:21:21.558Z,-1.10
2024-01-10T11:23:53.100Z,-1.10
2024-01-10T11:26:23.078Z,-1.10
2024-01-10T11:28:54.416Z,-1.40
2024-01-10T11:31:31.881Z,-1.40
2024-01-10T11:34:01.631Z,-1.30
2024-01-10T11:36:30.797Z,-1.20
2024-01-10T11:39:03.908Z,-1.10
2024-01-10T11:41:36.983Z,-1.10
2024-01-10T11:44:29.976Z,-1.00
2024-01-10T11:47:00.911Z,-1.10
2024-01-10T11:49:30.100Z,-1.10
2024-01-10T11:52:02.450Z,-1.20
2024-01-10T11:54:48.180Z,-1.20
2024-01-10T11:57:21.982Z,-1.30
2024-01-10T11:59:54.073Z,-1.30
2024-01-10T12:02:25.159Z,-1.30
2024-01-10T12:04:55.258Z,-1.20
2024-01-10T12:07:25.286Z,-1.20
2024-01-10T12:09:56.268Z,-1.10
2024-01-10T12:12:25.575Z,-1.00
2024-01-10T12:14:56.362Z,-0.90
2024-01-10T12:17:30.006Z,-0.90
2024-01-10T12:19:59.203Z,-0.80
2024-01-10T12:22:28.277Z,-0.80
2024-01-10T12:24:57.476Z,-0.90
2024-01-10T12:27:27.839Z,-0.80
2024-01-10T12:29:59.870Z,-0.70
2024-01-10T12:32:29.466Z,-0.80
2024-01-10T12:35:04.472Z,-0.80
2024-01-10T12:37:34.643Z,-0.70
2024-01-10T12:40:10.536Z,-0.70
2024-01-10T12:42:40.642Z,-0.60
2024-01-10T12:45:23.992Z,-0.60
2024-01-10T12:47:55.731Z,-0.70
2024-01-10T12:50:26.448Z,-0.80
2024-01-10T12:52:56.404Z,-0.90
2024-01-10T12:55:29.412Z,-0.90
2024-01-10T12:58:05.473Z,-1.00
2024-01-10T13:00:38.879Z,-1.00
2024-01-10T13:03:08.884Z,-1.20
2024-01-10T13:05:39.059Z,-1.20
2024-01-10T13:08:09.416Z,-1.20
2024-01-10T13:10:39.821Z,-1.30
2024-01-10T13:13:09.150Z,-1.30
2024-01-10T13:15:39.716Z,-1.20
2024-01-10T13:18:11.327Z,-1.10
2024-01-10T13:20:40.702Z,-1.10
2024-01-10T13:23:10.289Z,-1.10
2024-01-10T13:25:39.814Z,-1.20
2024-01-10T13:28:08.986Z,-1.20
2024-01-10T13:30:42.629Z,-1.20
2024-01-10T13:33:12.238Z,-1.10
2024-01-10T13:35:41.705Z,-1.00
2024-01-10T13:38:11.585Z,-1.00
2024-01-10T13:40:40.820Z,-1.10
2024-01-10T13:43:10.242Z,-1.10
2024-01-10T13:45:41.195Z,-1.00
2024-01-10T13:48:11.817Z,-1.10
2024-01-10T13:50:41.132Z,-1.10
2024-01-10T13:53:10.475Z,-1.20
2024-01-10T13:55:39.853Z,-1.10
2024-01-10T13:58:09.176Z,-1.20
2024-01-10T14:00:44.652Z,-1.30
2024-01-10T14:03:14.147Z,-1.40
2024-01-10T14:05:44.211Z,-1.60
2024-01-10T14:08:13.776Z,-1.70
2024-01-10T14:10:43.636Z,-1.70
2024-01-10T14:13:13.038Z,-1.80
2024-01-10T14:15:43.545Z,-1.80
2024-01-10T14:18:12.564Z,-1.90
2024-01-10T14:20:42.909Z,-1.90
2024-01-10T14:23:12.938Z,-2.00
2024-01-10T14:25:42.114Z,-2.00
2024-01-10T14:28:11.334Z,-2.10
2024-01-10T14:30:41.125Z,-2.10
2024-01-10T14:33:14.026Z,-2.10
2024-01-10T14:35:43.438Z,-2.10
2024-01-10T14:38:12.714Z,-2.10
2024-01-10T14:40:42.398Z,-2.20
2024-01-10T14:43:11.588Z,-2.30
2024-01-10T14:45:40.885Z,-2.40
2024-01-10T14:48:11.562Z,-2.40
2024-01-10T14:50:41.045Z,-2.30
2024-01-10T14:53:10.721Z,-2.40
2024-01-10T14:55:40.677Z,-2.50
2024-01-10T14:58:09.783Z,-2.50
2024-01-10T15:00:39.434Z,-2.60
2024-01-10T15:03:19.720Z,-2.60
2024-01-10T15:05:56.453Z,-2.50
2024-01-10T15:08:25.802Z,-2.50
2024-01-10T15:10:55.027Z,-2.60
2024-01-10T15:13:24.442Z,-2.60
2024-01-10T15:15:53.468Z,-2.60
2024-01-10T15:18:22.561Z,-2.70
2024-01-10T15:20:51.624Z,-2.70
2024-01-10T15:23:22.303Z,-2.80
2024-01-10T15:25:51.380Z,-2.80
2024-01-10T15:28:20.396Z,-2.80
2024-01-10T15:30:49.723Z,-2.80
2024-01-10T15:33:19.231Z,-2.90
2024-01-10T15:35:48.279Z,-2.90
2024-01-10T15:38:17.395Z,-2.80
2024-01-10T15:40:48.234Z,-2.90
2024-01-10T15:43:17.311Z,-2.90
2024-01-10T15:45:46.468Z,-3.00
2024-01-10T15:48:15.659Z,-2.90
2024-01-10T15:50:44.977Z,-3.00
2024-01-10T15:53:14.132Z,-3.00
2024-01-10T15:55:43.189Z,-3.00
2024-01-10T15:58:16.507Z,-3.00
2024-01-10T16:00:46.908Z,-3.00
2024-01-10T16:03:16.087Z,-3.00
2024-01-10T16:05:45.305Z,-3.00
2024-01-10T16:08:14.791Z,-3.00
2024-01-10T16:10:45.210Z,-3.00
2024-01-10T16:13:16.723Z,-3.10
2024-01-10T16:15:46.539Z,-3.10
2024-01-10T16:18:16.058Z,-3.20
2024-01-10T16:20:45.340Z,-3.10
2024-01-10T16:23:14.481Z,-3.10
2024-01-10T16:25:43.659Z,-3.10
2024-01-10T16:28:12.734Z,-3.10
2024-01-10T16:30:43.238Z,-3.20
2024-01-10T16:33:12.249Z,-3.20
2024-01-10T16:35:41.369Z,-3.20
2024-01-10T16:38:10.521Z,-3.20
2024-01-10T16:40:39.973Z,-3.20
2024-01-10T16:43:09.065Z,-3.20
2024-01-10T16:45:38.144Z,-3.20
2024-01-10T16:48:10.314Z,-3.20
2024-01-10T16:50:39.517Z,-3.20
2024-01-10T16:53:09.256Z,-3.20
2024-01-10T16:55:38.960Z,-3.30
2024-01-10T16:58:08.150Z,-3.40
2024-01-10T17:00:37.162Z,-3.40
2024-01-10T17:03:07.964Z,-3.40
2024-01-10T17:05:40.042Z,-3.40
2024-01-10T17:08:11.456Z,-3.40
2024-01-10T17:10:41.163Z,-3.40
2024-01-10T17:13:10.249Z,-3.40
2024-01-10T17:15:39.389Z,-3.40
2024-01-10T17:18:11.114Z,-3.50
2024-01-10T17:20:41.120Z,-3.60
2024-01-10T17:23:10.260Z,-3.50
2024-01-10T17:25:39.365Z,-3.50
2024-01-10T17:28:08.484Z,-3.50
2024-01-10T17:30:37.999Z,-3.50
2024-01-10T17:33:10.424Z,-3.40
2024-01-10T17:35:41.071Z,-3.40
2024-01-10T17:38:10.227Z,-3.50
2024-01-10T17:40:40.383Z,-3.50
2024-01-10T17:43:09.635Z,-3.50
2024-01-10T17:45:39.050Z,-3.40
2024-01-10T17:48:08.834Z,-3.50
2024-01-10T17:50:38.126Z,-3.50
2024-01-10T17:53:08.741Z,-3.50
2024-01-10T17:55:37.737Z,-3.60
2024-01-10T17:58:07.057Z,-3.60
2024-01-10T18:00:36.030Z,-3.70
2024-01-10T18:03:05.482Z,-3.70
2024-01-10T18:05:34.622Z,-3.70
2024-01-10T18:08:04.109Z,-3.70
2024-01-10T18:10:34.711Z,-3.70
2024-01-10T18:13:04.786Z,-3.60
2024-01-10T18:15:34.209Z,-3.60
2024-01-10T18:18:03.668Z,-3.60
2024-01-10T18:20:32.992Z,-3.70
2024-01-10T18:23:02.078Z,-3.70
2024-01-10T18:25:32.553Z,-3.70
2024-01-10T18:28:04.884Z,-3.70
2024-01-10T18:30:34.273Z,-3.70
2024-01-10T18:33:04.926Z,-3.80
2024-01-10T18:35:34.352Z,-3.80
2024-01-10T18:38:05.652Z,-3.90
2024-01-10T18:40:35.021Z,-3.80
2024-01-10T18:43:06.024Z,-3.90
2024-01-10T18:45:35.498Z,-3.90
2024-01-10T18:48:04.914Z,-3.90
2024-01-10T18:50:34.200Z,-3.90
2024-01-10T18:53:04.652Z,-4.00
2024-01-10T18:55:33.870Z,-4.00
2024-01-10T18:58:05.225Z,-4.00
2024-01-10T19:00:34.671Z,-3.90
2024-01-10T19:03:04.361Z,-4.00
2024-01-10T19:05:33.944Z,-4.00
2024-01-10T19:08:03.320Z,-4.00
2024-01-10T19:10:32.510Z,-4.00
2024-01-10T19:13:01.830Z,-4.00
2024-01-10T19:15:34.439Z,-3.90
2024-01-10T19:18:03.808Z,-4.00
2024-01-10T19:20:32.994Z,-3.90
2024-01-10T19:23:04.413Z,-3.90
2024-01-10T19:25:35.372Z,-4.00
2024-01-10T19:28:04.842Z,-3.90
2024-01-10T19:30:36.336Z,-4.00
2024-01-10T19:33:06.448Z,-4.00
2024-01-10T19:35:35.976Z,-4.00
2024-01-10T19:38:05.583Z,-3.90
2024-01-10T19:40:36.180Z,-3.80
2024-01-10T19:43:05.717Z,-3.80
2024-01-10T19:45:36.511Z,-3.80
2024-01-10T19:48:06.649Z,-3.80
2024-01-10T19:50:36.315Z,-3.80
2024-01-10T19:53:06.017Z,-3.80
2024-01-10T19:55:35.589Z,-3.80
2024-01-10T19:58:05.203Z,-3.70
2024-01-10T20:00:35.818Z,-3.70
2024-01-10T20:03:05.609Z,-3.70
2024-01-10T20:05:35.054Z,-3.70
2024-01-10T20:08:07.841Z,-3.70
2024-01-10T20:10:37.904Z,-3.50
2024-01-10T20:13:08.555Z,-3.50
2024-01-10T20:15:39.464Z,-3.50
2024-01-10T20:18:08.812Z,-3.50
2024-01-10T20:20:40.060Z,-3.40
2024-01-10T20:23:11.121Z,-3.40
2024-01-10T20:25:40.678Z,-3.40
2024-01-10T20:28:14.341Z,-3.40
2024-01-10T20:30:45.395Z,-3.40
2024-01-10T20:33:14.632Z,-3.40
2024-01-10T20:35:46.739Z,-3.40
2024-01-10T20:38:16.316Z,-3.40
2024-01-10T20:40:47.239Z,-3.40
2024-01-10T20:43:16.442Z,-3.40
2024-01-10T20:45:47.050Z,-3.40
2024-01-10T20:48:16.298Z,-3.40
2024-01-10T20:50:46.005Z,-3.50
2024-01-10T20:53:17.035Z,-3.50
2024-01-10T20:55:46.288Z,-3.50
2024-01-10T20:58:15.479Z,-3.50
2024-01-10T21:00:45.248Z,-3.60
2024-01-10T21:03:15.968Z,-3.60
2024-01-10T21:05:46.785Z,-3.60
2024-01-10T21:08:16.859Z,-3.70
2024-01-10T21:10:47.355Z,-3.60
2024-01-10T21:13:16.741Z,-3.60
2024-01-10T21:15:45.788Z,-3.60
2024-01-10T21:18:16.709Z,-3.70
2024-01-10T21:20:46.112Z,-3.70
2024-01-10T21:23:15.170Z,-3.80
2024-01-10T21:25:44.683Z,-3.80
2024-01-10T21:28:13.794Z,-3.80
2024-01-10T21:30:43.334Z,-3.80
2024-01-10T21:33:14.097Z,-3.70
2024-01-10T21:35:45.206Z,-3.80
2024-01-10T21:38:14.570Z,-3.80
2024-01-10T21:40:43.759Z,-3.80
2024-01-10T21:43:12.808Z,-3.90
2024-01-10T21:45:41.810Z,-4.00
2024-01-10T21:48:11.074Z,-4.10
2024-01-10T21:50:41.435Z,-4.10
2024-01-10T21:53:12.017Z,-4.10
2024-01-10T21:55:41.138Z,-4.20
2024-01-10T21:58:10.802Z,-4.20
2024-01-10T22:00:39.927Z,-4.20
2024-01-10T22:03:12.164Z,-4.20
2024-01-10T22:05:47.660Z,-4.20
2024-01-10T22:08:18.603Z,-4.20
2024-01-10T22:10:48.186Z,-4.30
2024-01-10T22:13:17.286Z,-4.30
2024-01-10T22:15:46.266Z,-4.30
2024-01-10T22:18:15.688Z,-4.30
2024-01-10T22:20:44.930Z,-4.20
2024-01-10T22:23:14.886Z,-4.00
2024-01-10T22:25:45.392Z,-4.20
2024-01-10T22:28:14.336Z,-4.20
2024-01-10T22:30:43.454Z,-4.30
2024-01-10T22:33:12.866Z,-4.30
2024-01-10T22:35:42.037Z,-4.40
2024-01-10T22:38:12.285Z,-4.50
2024-01-10T22:40:41.277Z,-4.50
2024-01-10T22:43:11.638Z,-4.50
2024-01-10T22:45:40.563Z,-4.50
2024-01-10T22:48:09.616Z,-4.50
2024-01-10T22:50:38.676Z,-4.60
2024-01-10T22:53:07.762Z,-4.60
2024-01-10T22:55:36.808Z,-4.60
2024-01-10T22:58:06.059Z,-4.60
2024-01-10T23:00:36.819Z,-4.60
2024-01-10T23:03:06.406Z,-4.70
2024-01-10T23:05:35.662Z,-4.70
2024-01-10T23:08:07.275Z,-4.70
2024-01-10T23:10:36.298Z,-4.70
2024-01-10T23:13:06.549Z,-4.70
2024-01-10T23:15:37.074Z,-4.70
2024-01-10T23:18:07.432Z,-4.70
2024-01-10T23:20:36.547Z,-4.80
2024-01-10T23:23:07.400Z,-4.80
2024-01-10T23:25:36.671Z,-4.80
2024-01-10T23:28:06.105Z,-4.80
2024-01-10T23:30:37.617Z,-4.80
2024-01-10T23:33:07.839Z,-4.80
2024-01-10T23:35:45.075Z,-4.80
2024-01-10T23:38:17.889Z,-4.80
2024-01-10T23:40:47.139Z,-4.70
2024-01-10T23:43:24.376Z,-4.70
2024-01-10T23:45:58.225Z,-4.80
2024-01-10T23:48:27.681Z,-4.90
2024-01-10T23:50:56.990Z,-4.80
2024-01-10T23:53:26.982Z,-4.90
2024-01-10T23:55:56.327Z,-4.80
2024-01-10T23:58:25.414Z,-4.90
